METAR / TAF

La lista dei METAR e dei TAF non è pensata per essere utilizzata per i briefing meteorologici (in particolare per ragioni tecniche non è possibile garantire la sua costante disponibilità e un aggiornamento continuo). Per i briefing meteorologici si consiglia di utilizzare lo skybriefing di Skyguide oppure il TAMSI (piattaforma  di MeteoSvizzera per l’autobriefing per i professionisti dell’aviazione – per informazioni utilizzare il formulario di contatto).

 

METAR Svizzera

METAR     LSZH 210020Z NIL=
METAR     LSZH 210050Z 18003KT CAVOK 18/14 Q1014 RESHRA TEMPO SHRA=
METAR     LSGG 210020Z AUTO 24004KT 210V280 9999 BKN095 17/17 Q1015
               NOSIG=
METAR     LSGG 210050Z AUTO 24006KT 9999 NSC 17/17 Q1014 NOSIG=
METAR     LFSB 210030Z AUTO 17001KT CAVOK 19/17 Q1013 TEMPO 4000
               TSRA BECMG FEW060CB BKN080=
METAR     LSZB 210020Z AUTO 09002KT 9999 BKN024 BKN070 BKN090 16/16
               Q1015=
METAR     LSZB 210050Z AUTO 10003KT 070V140 9999 SCT022 SCT027
               BKN070 16/16 Q1015=
METAR     LSZA 210020Z AUTO VRB02KT 9999 -RA SCT090 SCT110
               //////TCU 18/16 Q1013=
METAR     LSZA 210050Z AUTO VRB04KT 9999 -RA BKN110 18/16 Q1013=
METAR     LSZG 210020Z AUTO VRB02KT 8000 NCD 17/16 Q1014=
METAR     LSZG 210050Z AUTO 27002KT 5000 SCT006 BKN011 16/16 Q1014=
METAR     LSZR 210020Z AUTO 10006KT 060V160 9999 NSC 19/14 Q1013=
METAR     LSZR 210050Z AUTO VRB05KT 9999 -RA BKN/// 19/14 Q1013=
METAR     LSGS 210020Z AUTO 05003KT CAVOK 17/16 Q1016=
METAR     LSGS 210050Z AUTO 09004KT 9999 SCT031 17/16 Q1015=
METAR     LSGC 210020Z AUTO 28002KT 9999 NSC 13/13 Q1016=
METAR     LSGC 210050Z AUTO 32001KT CAVOK 13/13 Q1015=
METAR     LSZC 210020Z AUTO 22004KT 9999 FEW080 BKN100 BKN120 16/15
               Q1015=
METAR     LSZC 210050Z AUTO 28004KT 9999 -RA OVC090 16/14 Q1014=
METAR RRA LSZL 210050Z AUTO 06006KT 360V110 9999NDV -RA FEW036
               BKN089 19/17 Q1013 RERA RMK=
METAR     LSZL 210020Z NIL=
METAR     LSZS 210020Z AUTO 19002KT 1700 +RA BKN050TCU 09/09 Q1020=
METAR     LSZS 210050Z AUTO VRB01KT 3100 RA BKN008 SCT///CB 09/09
               Q1020=
METAR RRA LSMA 210050Z AUTO 20004KT 9999NDV BKN096 BKN120 BKN140
               16/16 Q1015 RMK=
METAR     LSMA 210020Z NIL=
METAR RRA LSMD 210050Z AUTO VRB02KT 9999NDV OVC110 19/14 Q1014 RMK=
METAR     LSMD 210020Z NIL=
METAR RRA LSME 210050Z AUTO 25003KT 220V290 9999NDV OVC082 17/15
               Q1014 RMK=
METAR     LSME 210020Z NIL=
METAR RRA LSMM 210050Z AUTO 09003KT 050V120 9999NDV SCT007 BKN120
               15/14 Q1015 RMK=
METAR     LSMM 210020Z NIL=
METAR RRA LSMP 210050Z AUTO VRB02KT 9999NDV FEW065 SCT081 BKN130
               16/15 Q1014 RMK=
METAR     LSMP 210020Z NIL=
METAR     LSMS 210020Z AUTO 05003KT CAVOK 17/16 Q1016=
METAR     LSMS 210050Z AUTO 09004KT 9999 SCT031 17/16 Q1015=
aggiornamento sabato 21 luglio 2018 ore 03:14

TAF Svizzera

TAF     LSZH 202325Z 2100/2206 20006KT 9999 FEW020 BKN080
             TX22/2114Z TN16/2104Z TN15/2204Z TEMPO 2100/2108 SHRA
             SCT050TCU PROB30 TEMPO 2100/2106 24015G30KT 4000 TSRA
             SCT050CB PROB40 TEMPO 2108/2206 SHRA SCT050TCU PROB40
             TEMPO 2113/2118 34010KT=
TAF     LSGG 202325Z 2100/2206 VRB03KT 9999 BKN090 TX24/2115Z
             TN17/2104Z TN14/2204Z BECMG 2111/2113 SCT030 BKN050
             TEMPO 2111/2118 SHRA=
TAF     LFSB 202300Z 2100/2124 VRB04KT 9999 FEW060CB BKN080 TEMPO
             2100/2101 3000 SHRA SCT060CB PROB40 TEMPO 2100/2101
             TSRA BECMG 2101/2104 24005KT PROB30 TEMPO 2101/2107
             4000 TSRA PROB40 TEMPO 2107/2116 3000 TSRA BKN025
             SCT030CB PROB30 TEMPO 2116/2124 SHRA PROB30 TEMPO
             2116/2118 01010G20KT BECMG 2121/2124 VRB03KT CAVOK=
TAF     LSZL 201725Z 2018/2103 VRB03KT 9999 FEW060 TEMPO 2018/2103
             27015G30KT 4000 TSRA SCT050CB=
TAF     LSMA 201625Z 2017/2123 20004KT 9999 FEW030 SCT080 BKN100
             PROB40 TEMPO 2017/2024 22015G25KT 4500 TSRA SCT050CB
             TEMPO 2100/2118 SHRA SCT025TCU BKN040=
TAF     LSMD 201625Z 2017/2123 VRB03KT 9999 FEW060 PROB30 TEMPO
             2017/2024 30015G25KT 4500 TSRA SCT050CB TEMPO
             2100/2118 27010KT SHRA SCT025TCU BKN040=
TAF     LSME 201625Z 2017/2123 VRB03KT 9999 FEW060 BKN100 PROB40
             TEMPO 2017/2024 24015G25KT 4500 TSRA SCT050CB TEMPO
             2100/2118 27010KT SHRA SCT025TCU BKN040=
TAF     LSMM 201625Z 2017/2123 VRB03KT 9999 FEW024 SCT032 BKN055
             PROB40 TEMPO 2017/2024 30015G30KT 4500 TSRA SCT050CB
             TEMPO 2100/2118 27010KT SHRA SCT025TCU BKN030=
TAF     LSMP 201625Z 2017/2123 VRB03KT 9999 FEW035 BKN090 TEMPO
             2017/2022 VRB15G30KT 3500 TSRA SCT040CB PROB30 TEMPO
             2102/2106 VRB15G27KT 4000 TSRA SCT040CB=
aggiornamento sabato 21 luglio 2018 ore 03:03